Seattle, Washington
Current Conditions -  °F | °C
As of 4:53 PM on Friday 19 Dec 2014 (Local Time) from KBFI Reporting Station
Broken Clouds Broken Clouds  
Wind Chill: 52°   Ceiling: 5500
Heat Index: 52°   Visibility: 10mi
Dew Point: 38°   Wind: 7mph
Humidity: 59%   Direction: 150°SSE
Pressure: 29.95"   Gusts: NA
Location:  47.6°N, 122.32°W
Report Text: KBFI 200053Z 15006KT 10SM FEW041 BKN055 11/03 A2995 RMK AO2 SLP140 T01110033
Loading
Personal Weather Stations






























Interactive Weather Map New forecast layout! Learn more

10-Day Weather Forecast

Advertisements
Track Severe Weather on mobile